CheckWX is a tool to help pilots better visualize weather data.  It is not intended as a substitute for an official pre-flight weather briefing.

22:31:21 UTC

KELO METAR
Ely Municipal Airport
Ely, Minnesota, USA
Current

36 mins ago

KELO 222155Z AUTO 23006KT 10SM CLR M03/M06 A2989 RMK AO2
Observed
Nov-22 @ 21:55 UTC
Wind
  • 230° at 6 KTS
Visibility
10 SM
Flight Rules
VFR
Cloud Levels
  • Clear skies
Temperature
-3°C / 27°F
Dewpoint
-6°C / 21°F
Humidity
80%
Altimeter
29.89" Hg
Pressure
1012.22 hPa
Previous

2 hours ago

KELO 222055Z AUTO 22008KT 10SM CLR M03/M06 A2991 RMK AO2
Observed
Nov-22 @ 20:55 UTC
Wind
  • 220° at 8 KTS
Visibility
10 SM
Flight Rules
VFR
Cloud Levels
  • Clear skies
Temperature
-3°C / 27°F
Dewpoint
-6°C / 21°F
Humidity
80%
Altimeter
29.91" Hg
Pressure
1012.92 hPa
Previous

3 hours ago

KELO 221955Z AUTO 22005KT 10SM CLR M03/M06 A2993 RMK AO2
Observed
Nov-22 @ 19:55 UTC
Wind
  • 220° at 5 KTS
Visibility
10 SM
Flight Rules
VFR
Cloud Levels
  • Clear skies
Temperature
-3°C / 27°F
Dewpoint
-6°C / 21°F
Humidity
80%
Altimeter
29.93" Hg
Pressure
1013.52 hPa